sensor_id;sensor_type;location;lat;lon;timestamp;P1;durP1;ratioP1;P2;durP2;ratioP2
58338;SDS011;48278;52.704;6.536;2023-02-02T00:01:45;41.20;;;3.20;;
58338;SDS011;48278;52.704;6.536;2023-02-02T00:04:17;49.58;;;3.63;;
58338;SDS011;48278;52.704;6.536;2023-02-02T00:06:51;43.63;;;2.92;;
58338;SDS011;48278;52.704;6.536;2023-02-02T00:09:18;43.35;;;2.67;;
58338;SDS011;48278;52.704;6.536;2023-02-02T00:11:45;28.60;;;2.42;;
58338;SDS011;48278;52.704;6.536;2023-02-02T00:14:12;37.72;;;4.35;;
58338;SDS011;48278;52.704;6.536;2023-02-02T00:19:15;39.95;;;3.08;;
58338;SDS011;48278;52.704;6.536;2023-02-02T00:21:42;41.58;;;2.88;;
58338;SDS011;48278;52.704;6.536;2023-02-02T00:24:09;46.17;;;2.65;;
58338;SDS011;48278;52.704;6.536;2023-02-02T00:26:38;35.92;;;2.65;;
58338;SDS011;48278;52.704;6.536;2023-02-02T00:29:05;38.80;;;2.97;;
58338;SDS011;48278;52.704;6.536;2023-02-02T00:31:33;48.63;;;3.47;;
58338;SDS011;48278;52.704;6.536;2023-02-02T00:33:59;35.55;;;2.28;;
58338;SDS011;48278;52.704;6.536;2023-02-02T00:36:25;48.47;;;3.08;;
58338;SDS011;48278;52.704;6.536;2023-02-02T00:38:51;66.07;;;4.80;;
58338;SDS011;48278;52.704;6.536;2023-02-02T00:41:17;51.37;;;3.57;;
58338;SDS011;48278;52.704;6.536;2023-02-02T00:43:43;54.35;;;4.85;;
58338;SDS011;48278;52.704;6.536;2023-02-02T00:46:16;36.60;;;2.40;;
58338;SDS011;48278;52.704;6.536;2023-02-02T00:48:42;33.72;;;1.92;;
58338;SDS011;48278;52.704;6.536;2023-02-02T00:51:08;50.67;;;2.65;;
58338;SDS011;48278;52.704;6.536;2023-02-02T00:53:34;40.22;;;2.70;;
58338;SDS011;48278;52.704;6.536;2023-02-02T00:56:00;50.95;;;3.65;;
58338;SDS011;48278;52.704;6.536;2023-02-02T00:58:26;52.15;;;4.00;;
58338;SDS011;48278;52.704;6.536;2023-02-02T01:00:51;65.47;;;5.43;;
58338;SDS011;48278;52.704;6.536;2023-02-02T01:03:17;48.80;;;3.28;;
58338;SDS011;48278;52.704;6.536;2023-02-02T01:05:43;38.05;;;2.65;;
58338;SDS011;48278;52.704;6.536;2023-02-02T01:08:14;49.22;;;3.05;;
58338;SDS011;48278;52.704;6.536;2023-02-02T01:10:40;38.28;;;3.03;;
58338;SDS011;48278;52.704;6.536;2023-02-02T01:13:06;33.72;;;3.33;;
58338;SDS011;48278;52.704;6.536;2023-02-02T01:15:31;41.80;;;3.30;;
58338;SDS011;48278;52.704;6.536;2023-02-02T01:17:57;52.65;;;5.95;;
58338;SDS011;48278;52.704;6.536;2023-02-02T01:20:23;38.40;;;4.00;;
58338;SDS011;48278;52.704;6.536;2023-02-02T01:22:49;49.47;;;4.20;;
58338;SDS011;48278;52.704;6.536;2023-02-02T01:25:16;45.75;;;3.38;;
58338;SDS011;48278;52.704;6.536;2023-02-02T01:27:42;44.13;;;3.30;;
58338;SDS011;48278;52.704;6.536;2023-02-02T01:30:07;36.08;;;3.55;;
58338;SDS011;48278;52.704;6.536;2023-02-02T01:32:34;63.03;;;5.55;;
58338;SDS011;48278;52.704;6.536;2023-02-02T01:35:00;43.35;;;3.90;;
58338;SDS011;48278;52.704;6.536;2023-02-02T01:37:25;43.80;;;2.80;;
58338;SDS011;48278;52.704;6.536;2023-02-02T01:39:51;46.38;;;3.97;;
58338;SDS011;48278;52.704;6.536;2023-02-02T01:42:22;38.83;;;2.88;;
58338;SDS011;48278;52.704;6.536;2023-02-02T01:45:00;46.33;;;2.20;;
58338;SDS011;48278;52.704;6.536;2023-02-02T01:47:31;51.10;;;3.50;;
58338;SDS011;48278;52.704;6.536;2023-02-02T01:49:59;36.53;;;2.42;;
58338;SDS011;48278;52.704;6.536;2023-02-02T01:52:27;60.08;;;5.30;;
58338;SDS011;48278;52.704;6.536;2023-02-02T01:54:57;39.95;;;3.72;;
58338;SDS011;48278;52.704;6.536;2023-02-02T01:57:30;46.53;;;4.57;;
58338;SDS011;48278;52.704;6.536;2023-02-02T02:00:16;41.40;;;3.83;;
58338;SDS011;48278;52.704;6.536;2023-02-02T02:02:49;48.83;;;3.05;;
58338;SDS011;48278;52.704;6.536;2023-02-02T02:05:22;41.90;;;2.72;;
58338;SDS011;48278;52.704;6.536;2023-02-02T02:08:12;58.60;;;3.67;;
58338;SDS011;48278;52.704;6.536;2023-02-02T02:10:42;36.67;;;3.67;;
58338;SDS011;48278;52.704;6.536;2023-02-02T02:13:08;48.58;;;3.78;;
58338;SDS011;48278;52.704;6.536;2023-02-02T02:15:38;40.28;;;3.20;;
58338;SDS011;48278;52.704;6.536;2023-02-02T02:18:31;45.75;;;3.28;;
58338;SDS011;48278;52.704;6.536;2023-02-02T02:21:19;38.58;;;3.90;;
58338;SDS011;48278;52.704;6.536;2023-02-02T02:27:41;41.28;;;2.83;;
58338;SDS011;48278;52.704;6.536;2023-02-02T02:33:05;50.70;;;4.00;;
58338;SDS011;48278;52.704;6.536;2023-02-02T02:35:35;25.73;;;2.28;;
58338;SDS011;48278;52.704;6.536;2023-02-02T02:41:26;26.52;;;2.03;;
58338;SDS011;48278;52.704;6.536;2023-02-02T02:43:58;39.97;;;3.22;;
58338;SDS011;48278;52.704;6.536;2023-02-02T02:46:28;42.67;;;4.03;;
58338;SDS011;48278;52.704;6.536;2023-02-02T02:48:56;37.30;;;2.80;;
58338;SDS011;48278;52.704;6.536;2023-02-02T02:54:08;43.80;;;3.47;;
58338;SDS011;48278;52.704;6.536;2023-02-02T02:56:41;32.10;;;2.92;;
58338;SDS011;48278;52.704;6.536;2023-02-02T02:59:25;34.13;;;2.22;;
58338;SDS011;48278;52.704;6.536;2023-02-02T03:04:38;41.08;;;2.20;;
58338;SDS011;48278;52.704;6.536;2023-02-02T03:07:09;29.45;;;2.20;;
58338;SDS011;48278;52.704;6.536;2023-02-02T03:09:43;34.30;;;2.72;;
58338;SDS011;48278;52.704;6.536;2023-02-02T03:12:11;52.45;;;4.53;;
58338;SDS011;48278;52.704;6.536;2023-02-02T03:14:37;31.50;;;2.40;;
58338;SDS011;48278;52.704;6.536;2023-02-02T03:17:03;41.55;;;3.05;;
58338;SDS011;48278;52.704;6.536;2023-02-02T03:19:29;43.63;;;2.85;;
58338;SDS011;48278;52.704;6.536;2023-02-02T03:21:55;37.40;;;2.72;;
58338;SDS011;48278;52.704;6.536;2023-02-02T03:24:20;26.20;;;2.40;;
58338;SDS011;48278;52.704;6.536;2023-02-02T03:26:46;36.25;;;2.25;;
58338;SDS011;48278;52.704;6.536;2023-02-02T03:29:12;33.40;;;2.53;;
58338;SDS011;48278;52.704;6.536;2023-02-02T03:31:38;37.17;;;2.95;;
58338;SDS011;48278;52.704;6.536;2023-02-02T03:34:04;38.85;;;3.80;;
58338;SDS011;48278;52.704;6.536;2023-02-02T03:36:29;34.05;;;3.38;;
58338;SDS011;48278;52.704;6.536;2023-02-02T03:38:55;37.38;;;3.72;;
58338;SDS011;48278;52.704;6.536;2023-02-02T03:41:21;42.63;;;3.90;;
58338;SDS011;48278;52.704;6.536;2023-02-02T03:43:46;31.17;;;2.63;;
58338;SDS011;48278;52.704;6.536;2023-02-02T03:46:12;39.20;;;3.25;;
58338;SDS011;48278;52.704;6.536;2023-02-02T03:48:38;32.50;;;3.20;;
58338;SDS011;48278;52.704;6.536;2023-02-02T03:51:11;38.03;;;3.55;;
58338;SDS011;48278;52.704;6.536;2023-02-02T03:53:39;41.78;;;4.57;;
58338;SDS011;48278;52.704;6.536;2023-02-02T03:56:08;32.08;;;2.50;;
58338;SDS011;48278;52.704;6.536;2023-02-02T03:58:34;32.20;;;2.55;;
58338;SDS011;48278;52.704;6.536;2023-02-02T04:01:04;39.35;;;3.22;;
58338;SDS011;48278;52.704;6.536;2023-02-02T04:03:31;32.22;;;3.63;;
58338;SDS011;48278;52.704;6.536;2023-02-02T04:05:57;31.47;;;4.23;;
58338;SDS011;48278;52.704;6.536;2023-02-02T04:08:23;39.35;;;3.45;;
58338;SDS011;48278;52.704;6.536;2023-02-02T04:10:49;34.95;;;2.92;;
58338;SDS011;48278;52.704;6.536;2023-02-02T04:13:15;39.45;;;4.25;;
58338;SDS011;48278;52.704;6.536;2023-02-02T04:15:40;34.63;;;3.00;;
58338;SDS011;48278;52.704;6.536;2023-02-02T04:18:06;41.17;;;3.80;;
58338;SDS011;48278;52.704;6.536;2023-02-02T04:20:32;35.05;;;3.70;;
58338;SDS011;48278;52.704;6.536;2023-02-02T04:22:58;43.95;;;6.00;;
58338;SDS011;48278;52.704;6.536;2023-02-02T04:25:23;40.70;;;4.18;;
58338;SDS011;48278;52.704;6.536;2023-02-02T04:27:49;44.20;;;4.22;;
58338;SDS011;48278;52.704;6.536;2023-02-02T04:30:15;36.10;;;3.30;;
58338;SDS011;48278;52.704;6.536;2023-02-02T04:32:41;46.47;;;3.70;;
58338;SDS011;48278;52.704;6.536;2023-02-02T04:35:07;46.47;;;4.38;;
58338;SDS011;48278;52.704;6.536;2023-02-02T04:37:33;37.65;;;4.20;;
58338;SDS011;48278;52.704;6.536;2023-02-02T04:39:58;30.10;;;3.22;;
58338;SDS011;48278;52.704;6.536;2023-02-02T04:42:24;36.13;;;3.58;;
58338;SDS011;48278;52.704;6.536;2023-02-02T04:44:50;48.53;;;4.40;;
58338;SDS011;48278;52.704;6.536;2023-02-02T04:47:16;30.73;;;4.07;;
58338;SDS011;48278;52.704;6.536;2023-02-02T04:49:41;34.10;;;3.13;;
58338;SDS011;48278;52.704;6.536;2023-02-02T04:52:09;38.63;;;4.43;;
58338;SDS011;48278;52.704;6.536;2023-02-02T04:54:35;40.42;;;4.57;;
58338;SDS011;48278;52.704;6.536;2023-02-02T04:57:01;33.65;;;4.00;;
58338;SDS011;48278;52.704;6.536;2023-02-02T04:59:27;33.53;;;4.78;;
58338;SDS011;48278;52.704;6.536;2023-02-02T05:01:54;34.38;;;6.05;;
58338;SDS011;48278;52.704;6.536;2023-02-02T05:04:28;34.50;;;4.05;;
58338;SDS011;48278;52.704;6.536;2023-02-02T05:06:54;39.65;;;4.40;;
58338;SDS011;48278;52.704;6.536;2023-02-02T05:09:20;46.42;;;5.03;;
58338;SDS011;48278;52.704;6.536;2023-02-02T05:11:46;31.98;;;3.78;;
58338;SDS011;48278;52.704;6.536;2023-02-02T05:14:11;48.75;;;4.45;;
58338;SDS011;48278;52.704;6.536;2023-02-02T05:16:37;34.80;;;3.72;;
58338;SDS011;48278;52.704;6.536;2023-02-02T05:19:03;29.40;;;4.28;;
58338;SDS011;48278;52.704;6.536;2023-02-02T05:21:29;36.03;;;3.60;;
58338;SDS011;48278;52.704;6.536;2023-02-02T05:23:56;28.05;;;3.03;;
58338;SDS011;48278;52.704;6.536;2023-02-02T05:26:24;45.22;;;5.88;;
58338;SDS011;48278;52.704;6.536;2023-02-02T05:28:51;21.90;;;2.00;;
58338;SDS011;48278;52.704;6.536;2023-02-02T05:31:17;14.07;;;1.47;;
58338;SDS011;48278;52.704;6.536;2023-02-02T05:33:44;23.63;;;1.50;;
58338;SDS011;48278;52.704;6.536;2023-02-02T05:36:09;21.17;;;1.30;;
58338;SDS011;48278;52.704;6.536;2023-02-02T05:38:35;22.77;;;3.60;;
58338;SDS011;48278;52.704;6.536;2023-02-02T05:41:01;17.10;;;2.33;;
58338;SDS011;48278;52.704;6.536;2023-02-02T05:43:27;17.48;;;1.85;;
58338;SDS011;48278;52.704;6.536;2023-02-02T05:45:54;22.35;;;2.25;;
58338;SDS011;48278;52.704;6.536;2023-02-02T05:48:20;20.23;;;1.90;;
58338;SDS011;48278;52.704;6.536;2023-02-02T05:50:47;20.25;;;1.83;;
58338;SDS011;48278;52.704;6.536;2023-02-02T05:53:21;17.88;;;2.50;;
58338;SDS011;48278;52.704;6.536;2023-02-02T05:55:47;18.73;;;1.90;;
58338;SDS011;48278;52.704;6.536;2023-02-02T05:58:13;13.60;;;1.38;;
58338;SDS011;48278;52.704;6.536;2023-02-02T06:00:38;16.50;;;1.70;;
58338;SDS011;48278;52.704;6.536;2023-02-02T06:03:04;8.88;;;1.77;;
58338;SDS011;48278;52.704;6.536;2023-02-02T06:05:30;9.00;;;0.90;;
58338;SDS011;48278;52.704;6.536;2023-02-02T06:07:56;15.13;;;1.77;;
58338;SDS011;48278;52.704;6.536;2023-02-02T06:10:21;17.23;;;1.55;;
58338;SDS011;48278;52.704;6.536;2023-02-02T06:12:47;13.05;;;1.30;;
58338;SDS011;48278;52.704;6.536;2023-02-02T06:15:13;18.55;;;0.98;;
58338;SDS011;48278;52.704;6.536;2023-02-02T06:17:39;18.60;;;1.35;;
58338;SDS011;48278;52.704;6.536;2023-02-02T06:20:04;15.10;;;1.17;;
58338;SDS011;48278;52.704;6.536;2023-02-02T06:22:31;16.13;;;1.10;;
58338;SDS011;48278;52.704;6.536;2023-02-02T06:24:57;20.80;;;1.10;;
58338;SDS011;48278;52.704;6.536;2023-02-02T06:27:23;10.95;;;0.90;;
58338;SDS011;48278;52.704;6.536;2023-02-02T06:29:49;11.02;;;0.88;;
58338;SDS011;48278;52.704;6.536;2023-02-02T06:32:14;10.50;;;2.10;;
58338;SDS011;48278;52.704;6.536;2023-02-02T06:34:40;15.82;;;1.20;;
58338;SDS011;48278;52.704;6.536;2023-02-02T06:37:06;19.98;;;1.50;;
58338;SDS011;48278;52.704;6.536;2023-02-02T06:39:31;14.82;;;1.02;;
58338;SDS011;48278;52.704;6.536;2023-02-02T06:41:57;20.02;;;1.50;;
58338;SDS011;48278;52.704;6.536;2023-02-02T06:44:23;13.07;;;1.10;;
58338;SDS011;48278;52.704;6.536;2023-02-02T06:46:48;17.02;;;1.60;;
58338;SDS011;48278;52.704;6.536;2023-02-02T06:49:14;12.27;;;0.90;;
58338;SDS011;48278;52.704;6.536;2023-02-02T06:51:40;13.88;;;1.02;;
58338;SDS011;48278;52.704;6.536;2023-02-02T06:54:05;11.07;;;1.10;;
58338;SDS011;48278;52.704;6.536;2023-02-02T06:56:31;17.38;;;1.90;;
58338;SDS011;48278;52.704;6.536;2023-02-02T06:58:57;21.55;;;2.17;;
58338;SDS011;48278;52.704;6.536;2023-02-02T07:01:23;14.63;;;3.00;;
58338;SDS011;48278;52.704;6.536;2023-02-02T07:03:49;12.65;;;1.15;;
58338;SDS011;48278;52.704;6.536;2023-02-02T07:06:16;15.83;;;1.40;;
58338;SDS011;48278;52.704;6.536;2023-02-02T07:08:49;19.92;;;1.63;;
58338;SDS011;48278;52.704;6.536;2023-02-02T07:11:16;19.25;;;1.50;;
58338;SDS011;48278;52.704;6.536;2023-02-02T07:13:46;14.68;;;1.48;;
58338;SDS011;48278;52.704;6.536;2023-02-02T07:16:12;17.80;;;1.67;;
58338;SDS011;48278;52.704;6.536;2023-02-02T07:18:39;15.30;;;1.52;;
58338;SDS011;48278;52.704;6.536;2023-02-02T07:21:07;15.65;;;2.10;;
58338;SDS011;48278;52.704;6.536;2023-02-02T07:23:39;22.40;;;1.90;;
58338;SDS011;48278;52.704;6.536;2023-02-02T07:26:06;23.77;;;1.98;;
58338;SDS011;48278;52.704;6.536;2023-02-02T07:28:33;20.60;;;4.57;;
58338;SDS011;48278;52.704;6.536;2023-02-02T07:30:59;19.02;;;1.83;;
58338;SDS011;48278;52.704;6.536;2023-02-02T07:33:25;16.42;;;1.98;;
58338;SDS011;48278;52.704;6.536;2023-02-02T07:35:51;18.95;;;2.13;;
58338;SDS011;48278;52.704;6.536;2023-02-02T07:38:17;16.65;;;1.90;;
58338;SDS011;48278;52.704;6.536;2023-02-02T07:40:43;23.80;;;2.13;;
58338;SDS011;48278;52.704;6.536;2023-02-02T07:43:10;15.63;;;2.13;;
58338;SDS011;48278;52.704;6.536;2023-02-02T07:45:38;12.75;;;1.88;;
58338;SDS011;48278;52.704;6.536;2023-02-02T07:48:04;14.32;;;2.35;;
58338;SDS011;48278;52.704;6.536;2023-02-02T07:50:30;17.80;;;2.25;;
58338;SDS011;48278;52.704;6.536;2023-02-02T07:52:57;10.57;;;2.28;;
58338;SDS011;48278;52.704;6.536;2023-02-02T07:55:23;25.67;;;4.10;;
58338;SDS011;48278;52.704;6.536;2023-02-02T07:57:52;14.82;;;3.38;;
58338;SDS011;48278;52.704;6.536;2023-02-02T08:00:19;25.48;;;3.85;;
58338;SDS011;48278;52.704;6.536;2023-02-02T08:02:55;33.15;;;4.30;;
58338;SDS011;48278;52.704;6.536;2023-02-02T08:05:20;17.35;;;3.38;;
58338;SDS011;48278;52.704;6.536;2023-02-02T08:07:46;27.23;;;4.22;;
58338;SDS011;48278;52.704;6.536;2023-02-02T08:10:12;21.13;;;4.72;;
58338;SDS011;48278;52.704;6.536;2023-02-02T08:12:38;19.98;;;4.20;;
58338;SDS011;48278;52.704;6.536;2023-02-02T08:15:04;22.08;;;4.05;;
58338;SDS011;48278;52.704;6.536;2023-02-02T08:17:30;29.05;;;4.28;;
58338;SDS011;48278;52.704;6.536;2023-02-02T08:19:56;26.10;;;4.00;;
58338;SDS011;48278;52.704;6.536;2023-02-02T08:22:22;27.88;;;5.30;;
58338;SDS011;48278;52.704;6.536;2023-02-02T08:24:47;21.60;;;3.78;;
58338;SDS011;48278;52.704;6.536;2023-02-02T08:27:14;20.17;;;4.05;;
58338;SDS011;48278;52.704;6.536;2023-02-02T08:32:06;19.58;;;4.63;;
58338;SDS011;48278;52.704;6.536;2023-02-02T08:34:32;23.50;;;4.30;;
58338;SDS011;48278;52.704;6.536;2023-02-02T08:37:01;16.23;;;3.90;;
58338;SDS011;48278;52.704;6.536;2023-02-02T08:39:27;17.10;;;4.15;;
58338;SDS011;48278;52.704;6.536;2023-02-02T08:41:54;19.67;;;4.15;;
58338;SDS011;48278;52.704;6.536;2023-02-02T08:46:46;19.67;;;5.80;;
58338;SDS011;48278;52.704;6.536;2023-02-02T08:49:12;25.45;;;5.07;;
58338;SDS011;48278;52.704;6.536;2023-02-02T08:51:38;22.75;;;5.35;;
58338;SDS011;48278;52.704;6.536;2023-02-02T08:54:05;20.77;;;5.18;;
58338;SDS011;48278;52.704;6.536;2023-02-02T08:56:32;18.47;;;5.20;;
58338;SDS011;48278;52.704;6.536;2023-02-02T08:58:57;32.38;;;5.93;;
58338;SDS011;48278;52.704;6.536;2023-02-02T09:01:24;24.75;;;6.25;;
58338;SDS011;48278;52.704;6.536;2023-02-02T09:03:52;23.50;;;6.15;;
58338;SDS011;48278;52.704;6.536;2023-02-02T09:08:59;21.58;;;5.72;;
58338;SDS011;48278;52.704;6.536;2023-02-02T09:11:25;16.38;;;3.90;;
58338;SDS011;48278;52.704;6.536;2023-02-02T09:13:57;19.67;;;4.50;;
58338;SDS011;48278;52.704;6.536;2023-02-02T09:16:25;12.73;;;3.30;;
58338;SDS011;48278;52.704;6.536;2023-02-02T09:18:51;14.23;;;4.10;;
58338;SDS011;48278;52.704;6.536;2023-02-02T09:21:18;14.02;;;3.90;;
58338;SDS011;48278;52.704;6.536;2023-02-02T09:23:44;12.98;;;3.70;;
58338;SDS011;48278;52.704;6.536;2023-02-02T09:26:19;16.30;;;4.05;;
58338;SDS011;48278;52.704;6.536;2023-02-02T09:28:53;15.93;;;5.05;;
58338;SDS011;48278;52.704;6.536;2023-02-02T09:31:21;25.65;;;6.68;;
58338;SDS011;48278;52.704;6.536;2023-02-02T09:33:48;12.18;;;2.80;;
58338;SDS011;48278;52.704;6.536;2023-02-02T09:36:15;12.60;;;2.58;;
58338;SDS011;48278;52.704;6.536;2023-02-02T09:38:44;16.23;;;2.45;;
58338;SDS011;48278;52.704;6.536;2023-02-02T09:46:34;12.57;;;2.42;;
58338;SDS011;48278;52.704;6.536;2023-02-02T09:49:12;15.32;;;3.22;;
58338;SDS011;48278;52.704;6.536;2023-02-02T09:52:01;18.30;;;1.88;;
58338;SDS011;48278;52.704;6.536;2023-02-02T09:54:46;21.05;;;1.80;;
58338;SDS011;48278;52.704;6.536;2023-02-02T09:57:21;9.43;;;1.38;;
58338;SDS011;48278;52.704;6.536;2023-02-02T09:59:51;8.13;;;1.23;;
58338;SDS011;48278;52.704;6.536;2023-02-02T10:02:20;10.75;;;1.30;;
58338;SDS011;48278;52.704;6.536;2023-02-02T10:05:34;9.32;;;1.50;;
58338;SDS011;48278;52.704;6.536;2023-02-02T10:07:45;11.73;;;1.63;;
58338;SDS011;48278;52.704;6.536;2023-02-02T10:10:28;10.80;;;1.58;;
58338;SDS011;48278;52.704;6.536;2023-02-02T10:13:09;12.27;;;1.75;;
58338;SDS011;48278;52.704;6.536;2023-02-02T10:15:55;10.55;;;2.03;;
58338;SDS011;48278;52.704;6.536;2023-02-02T10:18:45;13.88;;;1.98;;
58338;SDS011;48278;52.704;6.536;2023-02-02T10:21:25;13.70;;;2.53;;
58338;SDS011;48278;52.704;6.536;2023-02-02T10:24:02;10.10;;;1.88;;
58338;SDS011;48278;52.704;6.536;2023-02-02T10:26:38;16.80;;;1.98;;
58338;SDS011;48278;52.704;6.536;2023-02-02T10:34:40;16.92;;;2.35;;
58338;SDS011;48278;52.704;6.536;2023-02-02T10:37:20;19.38;;;2.33;;
58338;SDS011;48278;52.704;6.536;2023-02-02T10:39:51;18.00;;;2.60;;
58338;SDS011;48278;52.704;6.536;2023-02-02T10:42:33;15.60;;;2.85;;
58338;SDS011;48278;52.704;6.536;2023-02-02T10:45:12;14.38;;;2.35;;
58338;SDS011;48278;52.704;6.536;2023-02-02T10:47:41;8.07;;;1.98;;
58338;SDS011;48278;52.704;6.536;2023-02-02T10:52:36;17.02;;;2.30;;
58338;SDS011;48278;52.704;6.536;2023-02-02T10:55:26;16.85;;;3.45;;
58338;SDS011;48278;52.704;6.536;2023-02-02T11:03:15;87.85;;;14.95;;
58338;SDS011;48278;52.704;6.536;2023-02-02T11:05:43;49.75;;;9.18;;
58338;SDS011;48278;52.704;6.536;2023-02-02T11:08:30;20.63;;;4.10;;
58338;SDS011;48278;52.704;6.536;2023-02-02T11:10:57;18.75;;;2.83;;
58338;SDS011;48278;52.704;6.536;2023-02-02T11:13:40;16.77;;;3.13;;
58338;SDS011;48278;52.704;6.536;2023-02-02T11:18:40;17.75;;;5.25;;
58338;SDS011;48278;52.704;6.536;2023-02-02T11:23:49;13.25;;;4.05;;
58338;SDS011;48278;52.704;6.536;2023-02-02T11:26:18;15.00;;;3.05;;
58338;SDS011;48278;52.704;6.536;2023-02-02T11:28:44;15.32;;;4.45;;
58338;SDS011;48278;52.704;6.536;2023-02-02T11:31:28;10.48;;;2.75;;
58338;SDS011;48278;52.704;6.536;2023-02-02T11:34:14;10.68;;;1.85;;
58338;SDS011;48278;52.704;6.536;2023-02-02T11:37:20;7.63;;;1.58;;
58338;SDS011;48278;52.704;6.536;2023-02-02T11:39:45;10.90;;;2.05;;
58338;SDS011;48278;52.704;6.536;2023-02-02T11:44:40;14.85;;;3.88;;
58338;SDS011;48278;52.704;6.536;2023-02-02T11:47:19;16.25;;;3.95;;
58338;SDS011;48278;52.704;6.536;2023-02-02T11:49:48;17.70;;;4.15;;
58338;SDS011;48278;52.704;6.536;2023-02-02T11:52:26;22.95;;;5.45;;
58338;SDS011;48278;52.704;6.536;2023-02-02T11:54:54;17.23;;;4.90;;
58338;SDS011;48278;52.704;6.536;2023-02-02T11:57:24;19.13;;;5.00;;
58338;SDS011;48278;52.704;6.536;2023-02-02T12:00:05;14.80;;;5.05;;
58338;SDS011;48278;52.704;6.536;2023-02-02T12:02:32;18.85;;;4.80;;
58338;SDS011;48278;52.704;6.536;2023-02-02T12:07:37;17.67;;;4.30;;
58338;SDS011;48278;52.704;6.536;2023-02-02T12:16:23;18.60;;;5.13;;
58338;SDS011;48278;52.704;6.536;2023-02-02T12:21:52;23.83;;;5.50;;
58338;SDS011;48278;52.704;6.536;2023-02-02T12:24:36;17.40;;;4.88;;
58338;SDS011;48278;52.704;6.536;2023-02-02T12:30:07;18.75;;;4.78;;
58338;SDS011;48278;52.704;6.536;2023-02-02T12:36:00;23.08;;;5.97;;
58338;SDS011;48278;52.704;6.536;2023-02-02T12:41:59;28.55;;;8.27;;
58338;SDS011;48278;52.704;6.536;2023-02-02T13:07:06;32.35;;;7.25;;
58338;SDS011;48278;52.704;6.536;2023-02-02T13:12:38;61.33;;;15.80;;
58338;SDS011;48278;52.704;6.536;2023-02-02T13:15:09;55.45;;;13.70;;
58338;SDS011;48278;52.704;6.536;2023-02-02T13:20:17;48.92;;;9.45;;
58338;SDS011;48278;52.704;6.536;2023-02-02T13:23:08;57.65;;;10.70;;
58338;SDS011;48278;52.704;6.536;2023-02-02T13:25:52;65.63;;;10.00;;
58338;SDS011;48278;52.704;6.536;2023-02-02T13:28:34;66.20;;;8.65;;
58338;SDS011;48278;52.704;6.536;2023-02-02T13:31:01;53.03;;;8.40;;
58338;SDS011;48278;52.704;6.536;2023-02-02T13:33:34;46.88;;;7.25;;
58338;SDS011;48278;52.704;6.536;2023-02-02T13:36:03;47.75;;;8.20;;
58338;SDS011;48278;52.704;6.536;2023-02-02T13:38:30;50.53;;;7.30;;
58338;SDS011;48278;52.704;6.536;2023-02-02T13:40:59;47.85;;;7.75;;
58338;SDS011;48278;52.704;6.536;2023-02-02T13:43:32;44.30;;;7.38;;
58338;SDS011;48278;52.704;6.536;2023-02-02T13:46:11;50.50;;;7.57;;
58338;SDS011;48278;52.704;6.536;2023-02-02T13:52:13;45.88;;;7.05;;
58338;SDS011;48278;52.704;6.536;2023-02-02T14:00:16;34.30;;;7.15;;
58338;SDS011;48278;52.704;6.536;2023-02-02T14:03:00;34.70;;;7.00;;
58338;SDS011;48278;52.704;6.536;2023-02-02T14:13:23;32.67;;;6.80;;
58338;SDS011;48278;52.704;6.536;2023-02-02T14:16:22;44.75;;;7.28;;
58338;SDS011;48278;52.704;6.536;2023-02-02T14:19:13;47.13;;;7.00;;
58338;SDS011;48278;52.704;6.536;2023-02-02T14:22:00;42.53;;;7.45;;
58338;SDS011;48278;52.704;6.536;2023-02-02T14:29:33;40.47;;;7.03;;
58338;SDS011;48278;52.704;6.536;2023-02-02T14:40:31;33.72;;;5.07;;
58338;SDS011;48278;52.704;6.536;2023-02-02T14:43:46;34.90;;;6.32;;
58338;SDS011;48278;52.704;6.536;2023-02-02T14:46:20;34.97;;;6.00;;
58338;SDS011;48278;52.704;6.536;2023-02-02T14:51:18;27.85;;;6.25;;
58338;SDS011;48278;52.704;6.536;2023-02-02T14:53:47;30.30;;;6.05;;
58338;SDS011;48278;52.704;6.536;2023-02-02T14:56:18;40.30;;;5.88;;
58338;SDS011;48278;52.704;6.536;2023-02-02T14:58:53;31.60;;;6.20;;
58338;SDS011;48278;52.704;6.536;2023-02-02T15:01:22;41.72;;;5.90;;
58338;SDS011;48278;52.704;6.536;2023-02-02T15:03:56;45.03;;;6.63;;
58338;SDS011;48278;52.704;6.536;2023-02-02T15:06:44;29.95;;;6.07;;
58338;SDS011;48278;52.704;6.536;2023-02-02T15:14:30;38.72;;;6.78;;
58338;SDS011;48278;52.704;6.536;2023-02-02T15:20:12;40.72;;;7.47;;
58338;SDS011;48278;52.704;6.536;2023-02-02T15:25:24;44.25;;;7.57;;
58338;SDS011;48278;52.704;6.536;2023-02-02T15:28:09;39.35;;;6.57;;
58338;SDS011;48278;52.704;6.536;2023-02-02T15:30:59;42.85;;;6.50;;
58338;SDS011;48278;52.704;6.536;2023-02-02T15:36:23;44.22;;;6.95;;
58338;SDS011;48278;52.704;6.536;2023-02-02T15:38:51;44.22;;;6.72;;
58338;SDS011;48278;52.704;6.536;2023-02-02T15:41:20;39.55;;;6.65;;
58338;SDS011;48278;52.704;6.536;2023-02-02T15:43:46;47.05;;;7.15;;
58338;SDS011;48278;52.704;6.536;2023-02-02T15:46:13;36.83;;;6.10;;
58338;SDS011;48278;52.704;6.536;2023-02-02T15:49:12;33.47;;;7.15;;
58338;SDS011;48278;52.704;6.536;2023-02-02T15:51:46;30.10;;;6.25;;
58338;SDS011;48278;52.704;6.536;2023-02-02T15:54:27;28.88;;;6.05;;
58338;SDS011;48278;52.704;6.536;2023-02-02T15:56:55;30.20;;;5.00;;
58338;SDS011;48278;52.704;6.536;2023-02-02T15:59:24;34.65;;;6.78;;
58338;SDS011;48278;52.704;6.536;2023-02-02T16:01:59;25.42;;;5.35;;
58338;SDS011;48278;52.704;6.536;2023-02-02T16:04:35;25.40;;;5.22;;
58338;SDS011;48278;52.704;6.536;2023-02-02T16:07:15;27.55;;;5.07;;
58338;SDS011;48278;52.704;6.536;2023-02-02T16:09:43;24.58;;;4.82;;
58338;SDS011;48278;52.704;6.536;2023-02-02T16:12:16;25.80;;;4.75;;
58338;SDS011;48278;52.704;6.536;2023-02-02T16:14:47;22.27;;;4.57;;
58338;SDS011;48278;52.704;6.536;2023-02-02T16:17:19;26.02;;;4.63;;
58338;SDS011;48278;52.704;6.536;2023-02-02T16:19:56;23.02;;;4.70;;
58338;SDS011;48278;52.704;6.536;2023-02-02T16:22:23;21.85;;;4.60;;
58338;SDS011;48278;52.704;6.536;2023-02-02T16:24:50;22.80;;;5.17;;
58338;SDS011;48278;52.704;6.536;2023-02-02T16:27:22;17.67;;;4.10;;
58338;SDS011;48278;52.704;6.536;2023-02-02T16:29:50;17.67;;;4.30;;
58338;SDS011;48278;52.704;6.536;2023-02-02T16:34:56;20.13;;;5.03;;
58338;SDS011;48278;52.704;6.536;2023-02-02T16:39:56;17.35;;;5.15;;
58338;SDS011;48278;52.704;6.536;2023-02-02T16:42:39;25.25;;;5.65;;
58338;SDS011;48278;52.704;6.536;2023-02-02T16:45:05;23.55;;;5.97;;
58338;SDS011;48278;52.704;6.536;2023-02-02T16:47:32;21.70;;;5.32;;
58338;SDS011;48278;52.704;6.536;2023-02-02T16:52:46;28.42;;;7.60;;
58338;SDS011;48278;52.704;6.536;2023-02-02T16:55:16;34.47;;;7.47;;
58338;SDS011;48278;52.704;6.536;2023-02-02T16:57:44;30.05;;;6.85;;
58338;SDS011;48278;52.704;6.536;2023-02-02T17:00:17;35.03;;;8.02;;
58338;SDS011;48278;52.704;6.536;2023-02-02T17:02:46;31.70;;;8.23;;
58338;SDS011;48278;52.704;6.536;2023-02-02T17:07:46;34.58;;;9.02;;
58338;SDS011;48278;52.704;6.536;2023-02-02T17:15:56;43.45;;;10.35;;
58338;SDS011;48278;52.704;6.536;2023-02-02T17:18:23;51.58;;;11.80;;
58338;SDS011;48278;52.704;6.536;2023-02-02T17:20:49;49.13;;;11.15;;
58338;SDS011;48278;52.704;6.536;2023-02-02T17:23:21;45.45;;;10.05;;
58338;SDS011;48278;52.704;6.536;2023-02-02T17:25:52;46.33;;;11.00;;
58338;SDS011;48278;52.704;6.536;2023-02-02T17:28:19;48.77;;;11.17;;
58338;SDS011;48278;52.704;6.536;2023-02-02T17:30:47;48.80;;;11.50;;
58338;SDS011;48278;52.704;6.536;2023-02-02T17:33:17;54.67;;;11.65;;
58338;SDS011;48278;52.704;6.536;2023-02-02T17:35:44;49.25;;;12.55;;